createdAt,value
2022-08-09T00:04:40.399Z,4.6
2022-08-09T00:09:41.078Z,2.9
2022-08-09T00:14:41.938Z,3.9
2022-08-09T00:19:42.695Z,3.0
2022-08-09T00:24:43.828Z,3.4
2022-08-09T00:30:23.648Z,2.9
2022-08-09T00:34:46.418Z,3.0
2022-08-09T00:40:13.552Z,4.4
2022-08-09T00:44:46.989Z,3.0
2022-08-09T00:49:54.406Z,4.0
2022-08-09T00:54:48.020Z,2.4
2022-08-09T00:59:52.717Z,3.9
2022-08-09T01:04:49.686Z,3.0
2022-08-09T01:09:50.450Z,3.5
2022-08-09T01:14:52.553Z,3.7
2022-08-09T01:20:01.726Z,2.8
2022-08-09T01:24:53.095Z,3.2
2022-08-09T01:29:56.031Z,3.5
2022-08-09T01:34:54.016Z,2.6
2022-08-09T01:39:54.789Z,2.9
2022-08-09T01:44:55.555Z,2.4
2022-08-09T01:49:56.150Z,1.8
2022-08-09T01:54:56.997Z,2.9
2022-08-09T02:00:00.253Z,2.2
2022-08-09T02:05:01.394Z,1.6
2022-08-09T02:10:01.178Z,1.1
2022-08-09T02:15:00.027Z,1.4
2022-08-09T02:20:02.110Z,1.8
2022-08-09T02:25:02.607Z,2.9
2022-08-09T02:30:02.257Z,2.5
2022-08-09T02:35:17.869Z,4.1
2022-08-09T02:40:03.906Z,3.3
2022-08-09T02:45:04.427Z,3.4
2022-08-09T02:50:05.167Z,3.6
2022-08-09T02:55:21.041Z,2.6
2022-08-09T03:00:21.179Z,2.7
2022-08-09T03:05:07.698Z,2.5
2022-08-09T03:10:08.226Z,2.4
2022-08-09T03:15:08.874Z,1.7
2022-08-09T03:20:11.555Z,2.7
2022-08-09T03:25:26.866Z,1.8
2022-08-09T03:30:11.110Z,2.3
2022-08-09T03:35:15.031Z,3.1
2022-08-09T03:40:13.286Z,4.5
2022-08-09T03:45:13.248Z,1.9
2022-08-09T03:50:13.946Z,1.4
2022-08-09T03:55:14.760Z,2.7
2022-08-09T04:00:15.414Z,1.6
2022-08-09T04:05:26.708Z,2.6
2022-08-09T04:10:20.255Z,3.2
2022-08-09T04:15:39.235Z,2.2
2022-08-09T04:20:18.181Z,4.2
2022-08-09T04:25:19.112Z,4.1
2022-08-09T04:30:20.816Z,5.6
2022-08-09T04:35:21.858Z,4.1
2022-08-09T04:40:36.234Z,2.9
2022-08-09T04:45:22.019Z,2.6
2022-08-09T04:50:22.588Z,5.9
2022-08-09T04:55:23.635Z,4.1
2022-08-09T05:00:24.129Z,3.3
2022-08-09T05:05:32.086Z,1.7
2022-08-09T05:10:28.197Z,3.3
2022-08-09T05:15:42.692Z,4.4
2022-08-09T05:20:29.622Z,4.6
2022-08-09T05:25:32.566Z,2.6
2022-08-09T05:30:29.996Z,4.4
2022-08-09T05:35:29.447Z,4.5
2022-08-09T05:40:30.412Z,3.3
2022-08-09T05:45:52.774Z,4.8
2022-08-09T05:50:51.403Z,4.7
2022-08-09T05:55:32.527Z,3.3
2022-08-09T06:00:33.278Z,4.8
2022-08-09T06:05:57.073Z,7.5
2022-08-09T06:10:34.799Z,4.8
2022-08-09T06:15:35.412Z,4.1
2022-08-09T06:20:36.051Z,5.6
2022-08-09T06:25:37.608Z,4.6
2022-08-09T06:30:37.569Z,4.5
2022-08-09T06:35:56.796Z,4.0
2022-08-09T06:40:39.226Z,6.4
2022-08-09T06:46:06.745Z,4.9
2022-08-09T06:50:40.648Z,4.6
2022-08-09T06:55:41.556Z,3.9
2022-08-09T07:00:52.037Z,4.4
2022-08-09T07:05:53.737Z,4.0
2022-08-09T07:10:43.743Z,4.5
2022-08-09T07:16:39.532Z,4.3
2022-08-09T07:20:47.797Z,5.5
2022-08-09T07:25:46.788Z,3.6
2022-08-09T07:30:46.935Z,2.7
2022-08-09T07:35:53.316Z,4.2
2022-08-09T07:41:09.842Z,4.3
2022-08-09T07:45:49.195Z,4.8
2022-08-09T07:50:53.022Z,4.0
2022-08-09T07:56:03.594Z,5.3
2022-08-09T08:00:59.043Z,5.3
2022-08-09T08:05:53.805Z,4.8
2022-08-09T08:11:15.167Z,4.5
2022-08-09T08:15:53.910Z,3.8
2022-08-09T08:20:54.567Z,5.1
2022-08-09T08:26:06.344Z,5.1
2022-08-09T08:30:56.052Z,3.5
2022-08-09T08:35:59.298Z,4.5
2022-08-09T08:40:57.801Z,4.1
2022-08-09T08:46:03.640Z,3.3
2022-08-09T08:50:59.107Z,4.3
2022-08-09T08:56:00.603Z,4.2
2022-08-09T09:01:00.940Z,4.9
2022-08-09T09:06:05.159Z,6.2
2022-08-09T09:11:05.831Z,6.9
2022-08-09T09:16:03.144Z,8.7
2022-08-09T09:21:03.838Z,7.2
2022-08-09T09:26:12.053Z,7.6
2022-08-09T09:31:05.520Z,9.1
2022-08-09T09:36:19.785Z,9.6
2022-08-09T09:41:06.661Z,8.2
2022-08-09T09:46:41.783Z,8.9
2022-08-09T09:51:11.638Z,9.3
2022-08-09T09:56:09.030Z,11.1
2022-08-09T10:01:31.217Z,7.7
2022-08-09T10:06:11.714Z,7.0
2022-08-09T10:11:52.688Z,8.2
2022-08-09T10:16:57.981Z,5.9
2022-08-09T10:21:13.032Z,10.3
2022-08-09T10:26:14.795Z,9.7
2022-08-09T10:36:15.403Z,8.1
2022-08-09T10:41:16.084Z,11.6
2022-08-09T10:46:22.170Z,8.4
2022-08-09T10:51:17.899Z,7.5
2022-08-09T10:56:22.651Z,8.4
2022-08-09T11:03:11.777Z,7.6
2022-08-09T11:06:20.179Z,7.7
2022-08-09T11:11:20.996Z,8.2
2022-08-09T11:16:33.602Z,11.2
2022-08-09T11:21:22.706Z,7.7
2022-08-09T11:26:23.713Z,9.9
2022-08-09T11:31:36.392Z,7.5
2022-08-09T11:36:35.311Z,10.9
2022-08-09T11:41:26.001Z,11.2
2022-08-09T11:46:33.413Z,8.1
2022-08-09T11:52:56.760Z,6.5
2022-08-09T11:56:42.450Z,9.0
2022-08-09T12:02:01.276Z,7.1
2022-08-09T12:06:32.417Z,7.6
2022-08-09T12:11:37.905Z,7.8
2022-08-09T12:16:38.104Z,10.6
2022-08-09T12:21:38.524Z,8.6
2022-08-09T12:26:33.617Z,6.9
2022-08-09T12:32:01.667Z,6.1
2022-08-09T12:36:36.207Z,5.0
2022-08-09T12:41:40.048Z,5.8
2022-08-09T12:46:36.546Z,6.3
2022-08-09T12:52:00.766Z,7.1
2022-08-09T12:56:43.905Z,5.5
2022-08-09T13:01:46.930Z,4.7
2022-08-09T13:06:40.492Z,7.2
2022-08-09T13:11:42.485Z,6.8
2022-08-09T13:16:41.823Z,6.4
2022-08-09T13:22:36.587Z,5.7
2022-08-09T13:26:43.161Z,7.8
2022-08-09T13:32:20.042Z,4.7
2022-08-09T13:36:45.029Z,7.0
2022-08-09T13:41:57.273Z,4.9
2022-08-09T13:47:27.066Z,6.0
2022-08-09T13:51:58.861Z,4.5
2022-08-09T13:56:48.278Z,5.5
2022-08-09T14:02:00.602Z,6.7
2022-08-09T14:06:50.075Z,4.9
2022-08-09T14:11:51.334Z,4.5
2022-08-09T14:16:51.852Z,7.9
2022-08-09T14:21:52.778Z,5.9
2022-08-09T14:26:53.632Z,5.3
2022-08-09T14:31:56.246Z,5.1
2022-08-09T14:36:55.233Z,7.1
2022-08-09T14:41:55.921Z,4.5
2022-08-09T14:47:12.500Z,7.7
2022-08-09T14:51:58.506Z,6.7
2022-08-09T14:56:59.332Z,7.6
2022-08-09T15:01:59.285Z,8.0
2022-08-09T15:07:00.248Z,6.7
2022-08-09T15:12:01.054Z,6.9
2022-08-09T15:17:05.010Z,8.1
2022-08-09T15:22:03.099Z,7.4
2022-08-09T15:27:03.897Z,8.4
2022-08-09T15:32:05.271Z,8.1
2022-08-09T15:37:05.519Z,8.7
2022-08-09T15:42:05.883Z,11.0
2022-08-09T15:47:06.868Z,6.0
2022-08-09T15:52:07.831Z,7.9
2022-08-09T15:57:09.508Z,7.9
2022-08-09T16:02:09.464Z,7.7
2022-08-09T16:07:10.306Z,5.7
2022-08-09T16:12:11.806Z,6.2
2022-08-09T16:17:12.103Z,8.4
2022-08-09T16:22:14.763Z,5.2
2022-08-09T16:27:13.718Z,9.6
2022-08-09T16:32:33.165Z,9.2
2022-08-09T16:37:15.146Z,7.3
2022-08-09T16:42:16.072Z,5.2
2022-08-09T16:48:39.724Z,5.3
2022-08-09T16:52:17.897Z,10.2
2022-08-09T16:57:18.468Z,9.1
2022-08-09T17:02:23.372Z,8.4
2022-08-09T17:08:43.335Z,7.7
2022-08-09T17:12:21.495Z,6.8
2022-08-09T17:17:26.256Z,7.3
2022-08-09T17:22:24.074Z,9.2
2022-08-09T17:27:23.905Z,7.3
2022-08-09T17:32:34.705Z,6.9
2022-08-09T17:37:25.125Z,5.2
2022-08-09T17:42:55.404Z,8.1
2022-08-09T17:47:26.794Z,4.3
2022-08-09T17:52:27.889Z,6.9
2022-08-09T17:58:03.678Z,6.9
2022-08-09T18:02:33.583Z,6.8
2022-08-09T18:07:30.411Z,7.2
2022-08-09T18:12:40.439Z,6.8
2022-08-09T18:18:02.338Z,9.2
2022-08-09T18:22:33.994Z,7.5
2022-08-09T18:27:59.694Z,6.2
2022-08-09T18:32:34.660Z,7.2
2022-08-09T18:37:47.247Z,5.2
2022-08-09T18:42:36.469Z,7.0
2022-08-09T18:47:37.092Z,7.1
2022-08-09T18:52:38.964Z,7.6
2022-08-09T18:57:43.563Z,7.5
2022-08-09T19:02:39.771Z,6.7
2022-08-09T19:07:40.245Z,6.7
2022-08-09T19:12:40.995Z,5.6
2022-08-09T19:17:54.463Z,8.6
2022-08-09T19:22:50.403Z,5.4
2022-08-09T19:27:43.532Z,6.2
2022-08-09T19:32:44.193Z,9.4
2022-08-09T19:37:56.441Z,7.5
2022-08-09T19:42:47.358Z,7.2
2022-08-09T19:47:46.788Z,5.3
2022-08-09T19:52:49.803Z,4.7
2022-08-09T19:57:48.322Z,7.6
2022-08-09T20:04:07.558Z,7.4
2022-08-09T20:07:58.625Z,3.8
2022-08-09T20:12:51.919Z,5.9
2022-08-09T20:17:54.306Z,7.2
2022-08-09T20:22:56.375Z,5.0
2022-08-09T20:27:53.799Z,4.8
2022-08-09T20:32:54.320Z,6.5
2022-08-09T20:38:20.786Z,6.4
2022-08-09T20:42:59.757Z,7.0
2022-08-09T20:47:56.669Z,5.2
2022-08-09T20:52:58.195Z,5.7
2022-08-09T20:58:05.607Z,8.3
2022-08-09T21:02:59.669Z,7.4
2022-08-09T21:08:01.387Z,5.8
2022-08-09T21:13:00.729Z,4.3
2022-08-09T21:18:22.017Z,6.4
2022-08-09T21:23:02.217Z,5.9
2022-08-09T21:28:03.541Z,7.1
2022-08-09T21:33:05.901Z,7.1
2022-08-09T21:38:05.918Z,6.9
2022-08-09T21:43:06.071Z,6.5
2022-08-09T21:48:06.782Z,6.6
2022-08-09T21:53:07.015Z,6.4
2022-08-09T21:58:08.059Z,8.3
2022-08-09T22:03:19.152Z,7.2
2022-08-09T22:08:13.447Z,6.1
2022-08-09T22:13:11.562Z,6.0
2022-08-09T22:18:12.292Z,4.7
2022-08-09T22:23:13.392Z,5.4
2022-08-09T22:28:29.444Z,3.9
2022-08-09T22:33:13.326Z,3.9
2022-08-09T22:38:14.756Z,6.2
2022-08-09T22:43:17.029Z,5.9
2022-08-09T22:48:35.042Z,4.8
2022-08-09T22:53:16.606Z,4.5
2022-08-09T22:58:30.989Z,4.3
2022-08-09T23:04:02.562Z,4.1
2022-08-09T23:08:27.835Z,5.0
2022-08-09T23:13:19.579Z,4.4
2022-08-09T23:18:20.453Z,4.7
2022-08-09T23:23:21.150Z,4.2
2022-08-09T23:28:21.987Z,2.9
2022-08-09T23:33:22.819Z,4.6
2022-08-09T23:38:23.456Z,5.4
2022-08-09T23:43:24.978Z,5.2
2022-08-09T23:48:25.039Z,2.2
2022-08-09T23:53:33.587Z,3.2
2022-08-09T23:58:29.930Z,3.2
